In Rescue
 
Open Full Screen Window  High Contrast Mode
Wind Gusting 00 knots
07
January 24, 2020 8:49 PM EST
Present Weather: Unknown Precipitation
Weather Information
Wind Direction
  050 °
Wind Speed
  07 kt (8 mph)
Wind Gust
  00 kt (0 mph)
Altimeter
29.94 in
Visibility
10 SM
Temperature
00° C
32° F
Dewpoint
-01° C
30° F
Humidity
93%
1hr Rain Fall
00.01 in.
24hr Rain Fall
00.02 in.
Sky Condition
Overcast @ 7,500 ft
Broken @ 6,000 ft
Scattered @ 4,000 ft
VFR

METAR KERY 250149Z AUTO 05007KT 10SM UP SCT040 BKN060 OVC075 00/M01 A2994 RMK AO2 P0001 T00021007

FAA Disclaimer: The data displayed is for advisory purposes only and is not to be used for flight planning or operations.